createdAt,value
2023-01-19T00:00:57.306Z,36.53
2023-01-19T00:03:24.445Z,33.17
2023-01-19T00:05:52.515Z,42.47
2023-01-19T00:08:19.635Z,40.53
2023-01-19T00:10:53.184Z,36.77
2023-01-19T00:13:21.431Z,36.60
2023-01-19T00:15:48.489Z,27.57
2023-01-19T00:18:15.958Z,30.53
2023-01-19T00:20:46.022Z,26.67
2023-01-19T00:23:14.493Z,27.53
2023-01-19T00:25:43.561Z,26.37
2023-01-19T00:28:14.648Z,33.20
2023-01-19T00:30:42.526Z,36.13
2023-01-19T00:33:14.399Z,32.50
2023-01-19T00:35:42.662Z,34.87
2023-01-19T00:38:11.859Z,39.37
2023-01-19T00:40:38.916Z,39.83
2023-01-19T00:43:06.083Z,31.73
2023-01-19T00:45:34.048Z,33.90
2023-01-19T00:48:01.334Z,34.10
2023-01-19T00:50:31.481Z,46.63
2023-01-19T00:53:02.459Z,35.73
2023-01-19T00:55:32.675Z,30.20
2023-01-19T00:57:59.895Z,27.00
2023-01-19T01:00:26.967Z,28.57
2023-01-19T01:02:54.525Z,23.40
2023-01-19T01:05:22.358Z,30.33
2023-01-19T01:07:50.536Z,32.23
2023-01-19T01:10:26.047Z,27.37
2023-01-19T01:12:57.562Z,26.37
2023-01-19T01:15:27.148Z,26.50
2023-01-19T01:17:55.297Z,24.10
2023-01-19T01:20:30.138Z,34.53
2023-01-19T01:22:57.805Z,28.60
2023-01-19T01:25:27.726Z,36.87
2023-01-19T01:27:55.513Z,33.00
2023-01-19T01:30:22.862Z,27.67
2023-01-19T01:32:50.114Z,29.53
2023-01-19T01:35:17.612Z,34.90
2023-01-19T01:37:44.734Z,30.60
2023-01-19T01:40:17.451Z,32.33
2023-01-19T01:42:45.379Z,32.43
2023-01-19T01:45:39.463Z,36.50
2023-01-19T01:48:14.036Z,35.37
2023-01-19T01:51:08.389Z,27.53
2023-01-19T01:53:38.534Z,30.53
2023-01-19T01:56:12.191Z,32.80
2023-01-19T01:58:40.068Z,37.30
2023-01-19T02:01:29.318Z,29.13
2023-01-19T02:03:57.712Z,29.67
2023-01-19T02:06:25.715Z,19.50
2023-01-19T02:09:29.003Z,19.50
2023-01-19T02:12:15.173Z,22.40
2023-01-19T02:14:42.216Z,20.73
2023-01-19T02:17:09.271Z,25.40
2023-01-19T02:19:43.616Z,22.43
2023-01-19T02:22:23.126Z,33.07
2023-01-19T02:24:50.352Z,28.67
2023-01-19T02:27:17.629Z,25.73
2023-01-19T02:29:44.911Z,23.97
2023-01-19T02:32:12.808Z,23.33
2023-01-19T02:34:39.975Z,27.70
2023-01-19T02:37:17.212Z,22.47
2023-01-19T02:39:56.253Z,21.47
2023-01-19T02:42:39.075Z,20.70
2023-01-19T02:45:09.384Z,29.23
2023-01-19T02:47:52.984Z,32.63
2023-01-19T02:50:49.154Z,23.67
2023-01-19T02:53:47.469Z,30.27
2023-01-19T02:56:53.824Z,30.20
2023-01-19T03:00:02.686Z,34.07
2023-01-19T03:02:55.098Z,23.53
2023-01-19T03:05:43.532Z,32.77
2023-01-19T03:08:59.541Z,26.30
2023-01-19T03:11:38.477Z,19.77
2023-01-19T03:14:18.410Z,23.57
2023-01-19T03:16:57.453Z,26.80
2023-01-19T03:19:42.722Z,20.70
2023-01-19T03:22:29.825Z,36.80
2023-01-19T03:25:01.548Z,25.67
2023-01-19T03:27:40.846Z,23.43
2023-01-19T03:30:22.379Z,26.57
2023-01-19T03:33:03.240Z,31.67
2023-01-19T03:35:35.655Z,31.80
2023-01-19T03:38:09.553Z,32.10
2023-01-19T03:40:40.097Z,30.63
2023-01-19T03:43:09.806Z,31.67
2023-01-19T03:45:39.060Z,31.90
2023-01-19T03:48:07.663Z,32.80
2023-01-19T03:50:34.790Z,36.00
2023-01-19T03:53:14.416Z,37.63
2023-01-19T03:55:47.063Z,34.43
2023-01-19T03:58:14.310Z,33.10
2023-01-19T04:00:41.513Z,32.90
2023-01-19T04:03:16.713Z,31.87
2023-01-19T04:05:44.718Z,32.93
2023-01-19T04:08:12.989Z,34.53
2023-01-19T04:10:40.232Z,38.57
2023-01-19T04:13:07.294Z,33.27
2023-01-19T04:15:34.490Z,37.40
2023-01-19T04:18:01.753Z,38.10
2023-01-19T04:20:30.563Z,41.03
2023-01-19T04:23:02.165Z,36.13
2023-01-19T04:25:29.657Z,30.77
2023-01-19T04:28:00.105Z,41.00
2023-01-19T04:30:27.900Z,32.23
2023-01-19T04:32:56.243Z,38.93
2023-01-19T04:35:23.755Z,42.23
2023-01-19T04:37:50.811Z,34.97
2023-01-19T04:40:18.100Z,35.57
2023-01-19T04:42:46.215Z,28.53
2023-01-19T04:45:14.698Z,24.47
2023-01-19T04:47:44.406Z,28.80
2023-01-19T04:50:12.237Z,26.57
2023-01-19T04:52:39.300Z,25.63
2023-01-19T04:55:08.020Z,23.20
2023-01-19T04:57:35.033Z,31.83
2023-01-19T05:00:02.933Z,25.97
2023-01-19T05:02:30.031Z,28.13
2023-01-19T05:04:57.145Z,30.43
2023-01-19T05:07:24.327Z,25.17
2023-01-19T05:09:51.335Z,37.77
2023-01-19T05:12:18.302Z,30.23
2023-01-19T05:14:45.412Z,34.83
2023-01-19T05:17:13.835Z,39.73
2023-01-19T05:19:40.967Z,38.67
2023-01-19T05:22:08.350Z,29.03
2023-01-19T05:24:35.654Z,32.83
2023-01-19T05:27:02.787Z,26.67
2023-01-19T05:29:29.809Z,34.27
2023-01-19T05:31:58.091Z,34.00
2023-01-19T05:34:25.390Z,34.30
2023-01-19T05:36:55.193Z,29.23
2023-01-19T05:39:22.227Z,33.17
2023-01-19T05:41:49.299Z,34.60
2023-01-19T05:44:16.290Z,34.13
2023-01-19T05:46:43.314Z,30.77
2023-01-19T05:49:12.156Z,38.27
2023-01-19T05:51:40.536Z,34.30
2023-01-19T05:54:08.587Z,29.30
2023-01-19T05:56:36.102Z,30.00
2023-01-19T05:59:03.161Z,34.90
2023-01-19T06:01:36.516Z,31.30
2023-01-19T06:04:05.640Z,32.20
2023-01-19T06:06:32.727Z,33.90
2023-01-19T06:08:59.774Z,34.00
2023-01-19T06:11:26.867Z,33.67
2023-01-19T06:13:53.997Z,39.33
2023-01-19T06:16:21.363Z,29.83
2023-01-19T06:18:48.366Z,35.33
2023-01-19T06:21:15.510Z,38.43
2023-01-19T06:23:42.548Z,27.17
2023-01-19T06:26:10.077Z,26.97
2023-01-19T06:28:39.364Z,30.77
2023-01-19T06:31:06.607Z,38.80
2023-01-19T06:33:33.628Z,32.73
2023-01-19T06:36:00.817Z,30.70
2023-01-19T06:38:28.581Z,26.03
2023-01-19T06:41:03.054Z,35.03
2023-01-19T06:43:31.682Z,34.00
2023-01-19T06:46:00.870Z,28.97
2023-01-19T06:48:30.366Z,31.93
2023-01-19T06:50:59.602Z,33.50
2023-01-19T06:53:28.262Z,31.70
2023-01-19T06:56:01.376Z,29.37
2023-01-19T06:58:31.086Z,31.60
2023-01-19T07:01:06.638Z,29.20
2023-01-19T07:03:35.475Z,34.57
2023-01-19T07:06:02.989Z,25.57
2023-01-19T07:08:30.189Z,31.33
2023-01-19T07:11:26.361Z,29.10
2023-01-19T07:13:59.693Z,25.20
2023-01-19T07:16:26.894Z,35.80
2023-01-19T07:18:54.173Z,25.77
2023-01-19T07:21:21.823Z,30.13
2023-01-19T07:23:51.840Z,32.77
2023-01-19T07:26:21.212Z,26.10
2023-01-19T07:28:48.946Z,34.17
2023-01-19T07:31:19.260Z,24.93
2023-01-19T07:33:47.061Z,27.60
2023-01-19T07:36:14.407Z,31.63
2023-01-19T07:38:42.851Z,28.23
2023-01-19T07:41:10.953Z,26.90
2023-01-19T07:43:38.353Z,21.27
2023-01-19T07:46:08.060Z,30.23
2023-01-19T07:48:36.795Z,22.57
2023-01-19T07:51:06.291Z,27.33
2023-01-19T07:53:33.303Z,29.20
2023-01-19T07:56:00.609Z,23.33
2023-01-19T07:58:27.848Z,25.17
2023-01-19T08:00:55.174Z,27.87
2023-01-19T08:03:24.368Z,25.10
2023-01-19T08:05:56.963Z,31.53
2023-01-19T08:08:23.996Z,25.17
2023-01-19T08:10:52.439Z,23.90
2023-01-19T08:13:20.155Z,26.20
2023-01-19T08:15:52.543Z,27.97
2023-01-19T08:18:20.557Z,24.13
2023-01-19T08:20:47.982Z,24.07
2023-01-19T08:23:15.178Z,27.47
2023-01-19T08:25:45.137Z,23.77
2023-01-19T08:28:17.162Z,24.30
2023-01-19T08:30:45.570Z,22.73
2023-01-19T08:33:13.813Z,24.37
2023-01-19T08:35:44.097Z,21.23
2023-01-19T08:38:11.600Z,29.60
2023-01-19T08:40:41.893Z,24.10
2023-01-19T08:43:16.306Z,27.20
2023-01-19T08:45:52.368Z,21.07
2023-01-19T08:48:22.715Z,23.67
2023-01-19T08:50:51.764Z,20.30
2023-01-19T08:53:21.238Z,26.27
2023-01-19T08:55:48.335Z,22.97
2023-01-19T08:58:16.129Z,21.03
2023-01-19T09:00:46.030Z,24.50
2023-01-19T09:03:13.934Z,22.40
2023-01-19T09:05:41.061Z,21.83
2023-01-19T09:08:13.245Z,23.33
2023-01-19T09:10:51.004Z,21.97
2023-01-19T09:13:20.176Z,19.37
2023-01-19T09:15:50.144Z,21.70
2023-01-19T09:18:24.768Z,22.63
2023-01-19T09:20:51.810Z,16.43
2023-01-19T09:23:20.682Z,19.63
2023-01-19T09:25:49.179Z,19.70
2023-01-19T09:28:17.945Z,18.03
2023-01-19T09:30:45.751Z,18.73
2023-01-19T09:33:16.879Z,20.70
2023-01-19T09:35:46.739Z,17.87
2023-01-19T09:38:16.758Z,14.27
2023-01-19T09:40:53.473Z,16.80
2023-01-19T09:43:47.762Z,18.37
2023-01-19T09:46:25.567Z,14.87
2023-01-19T09:48:59.034Z,13.00
2023-01-19T09:51:35.123Z,20.97
2023-01-19T09:54:20.859Z,16.67
2023-01-19T09:56:52.705Z,15.50
2023-01-19T09:59:32.974Z,16.40
2023-01-19T10:02:28.997Z,13.67
2023-01-19T10:05:22.574Z,19.33
2023-01-19T10:08:08.272Z,19.10
2023-01-19T10:10:40.436Z,18.20
2023-01-19T10:13:47.022Z,16.83
2023-01-19T10:16:56.951Z,17.73
2023-01-19T10:19:32.715Z,13.07
2023-01-19T10:22:35.893Z,16.10
2023-01-19T10:25:14.027Z,15.10
2023-01-19T10:27:42.823Z,11.40
2023-01-19T10:30:27.718Z,15.63
2023-01-19T10:32:55.259Z,13.57
2023-01-19T10:35:25.075Z,14.13
2023-01-19T10:38:01.371Z,12.63
2023-01-19T10:40:57.371Z,11.57
2023-01-19T10:43:44.897Z,13.73
2023-01-19T10:46:31.267Z,14.53
2023-01-19T10:48:58.456Z,16.00
2023-01-19T10:51:27.284Z,14.17
2023-01-19T10:54:13.859Z,12.60
2023-01-19T10:56:42.192Z,14.17
2023-01-19T10:59:44.220Z,12.33
2023-01-19T11:02:23.581Z,11.83
2023-01-19T11:04:59.467Z,11.27
2023-01-19T11:07:26.281Z,18.37
2023-01-19T11:10:20.775Z,22.10
2023-01-19T11:13:01.255Z,16.07
2023-01-19T11:15:58.991Z,11.13
2023-01-19T11:18:37.519Z,14.83
2023-01-19T11:21:16.605Z,20.23
2023-01-19T11:23:56.305Z,17.97
2023-01-19T11:26:38.987Z,12.40
2023-01-19T11:29:06.474Z,16.20
2023-01-19T11:31:37.948Z,16.47
2023-01-19T11:34:38.637Z,16.80
2023-01-19T11:37:18.527Z,12.50
2023-01-19T11:39:48.136Z,14.53
2023-01-19T11:42:16.868Z,14.90
2023-01-19T11:44:58.530Z,15.97
2023-01-19T11:47:46.036Z,15.60
2023-01-19T11:50:27.474Z,12.30
2023-01-19T11:53:13.065Z,12.77
2023-01-19T11:56:08.233Z,14.20
2023-01-19T11:58:41.506Z,24.77
2023-01-19T12:01:30.190Z,22.33
2023-01-19T12:04:14.193Z,14.60
2023-01-19T12:06:55.216Z,11.30
2023-01-19T12:09:46.381Z,13.67
2023-01-19T12:12:40.065Z,14.40
2023-01-19T12:15:47.804Z,18.63
2023-01-19T12:18:26.915Z,11.27
2023-01-19T12:20:56.317Z,15.40
2023-01-19T12:24:07.823Z,12.13
2023-01-19T12:26:59.014Z,11.70
2023-01-19T12:29:33.713Z,11.67
2023-01-19T12:32:20.200Z,11.80
2023-01-19T12:34:55.775Z,13.57
2023-01-19T12:37:39.551Z,14.23
2023-01-19T12:40:31.275Z,19.87
2023-01-19T12:43:05.285Z,17.00
2023-01-19T12:45:39.854Z,18.13
2023-01-19T12:48:25.980Z,13.97
2023-01-19T12:50:53.098Z,15.27
2023-01-19T12:53:22.452Z,11.90
2023-01-19T12:56:01.962Z,18.10
2023-01-19T12:58:29.394Z,12.93
2023-01-19T13:01:21.416Z,21.00
2023-01-19T13:04:33.621Z,14.57
2023-01-19T13:07:10.586Z,13.33
2023-01-19T13:09:39.258Z,16.40
2023-01-19T13:12:15.078Z,11.17
2023-01-19T13:14:43.349Z,18.17
2023-01-19T13:17:48.980Z,18.77
2023-01-19T13:20:33.277Z,13.13
2023-01-19T13:23:25.087Z,15.43
2023-01-19T13:26:12.781Z,13.43
2023-01-19T13:28:49.663Z,15.33
2023-01-19T13:31:20.343Z,13.70
2023-01-19T13:33:59.866Z,16.20
2023-01-19T13:36:33.129Z,16.67
2023-01-19T13:39:06.398Z,19.20
2023-01-19T13:41:41.074Z,20.60
2023-01-19T13:44:18.196Z,13.57
2023-01-19T13:46:47.805Z,15.10
2023-01-19T13:49:43.968Z,11.77
2023-01-19T13:52:27.535Z,15.43
2023-01-19T13:55:05.437Z,13.07
2023-01-19T13:57:41.616Z,14.30
2023-01-19T14:00:12.187Z,17.00
2023-01-19T14:03:11.621Z,13.00
2023-01-19T14:05:42.339Z,12.93
2023-01-19T14:08:12.336Z,12.93
2023-01-19T14:11:01.085Z,14.73
2023-01-19T14:13:41.525Z,12.63
2023-01-19T14:16:17.897Z,16.50
2023-01-19T14:18:45.015Z,14.47
2023-01-19T14:21:15.804Z,15.80
2023-01-19T14:24:16.999Z,17.37
2023-01-19T14:26:53.671Z,16.57
2023-01-19T14:29:38.058Z,16.43
2023-01-19T14:32:09.819Z,13.83
2023-01-19T14:34:51.386Z,20.77
2023-01-19T14:37:29.430Z,14.93
2023-01-19T14:40:00.838Z,19.63
2023-01-19T14:42:37.192Z,16.83
2023-01-19T14:45:22.536Z,15.60
2023-01-19T14:48:19.586Z,16.20
2023-01-19T14:51:02.493Z,16.67
2023-01-19T14:53:38.999Z,19.57
2023-01-19T14:56:07.709Z,17.80
2023-01-19T14:58:36.210Z,18.27
2023-01-19T15:01:04.702Z,18.63
2023-01-19T15:03:44.688Z,18.50
2023-01-19T15:06:19.838Z,17.00
2023-01-19T15:08:53.175Z,18.80
2023-01-19T15:11:34.630Z,20.90
2023-01-19T15:14:02.417Z,19.43
2023-01-19T15:16:32.882Z,21.60
2023-01-19T15:19:00.688Z,19.77
2023-01-19T15:21:27.776Z,20.07
2023-01-19T15:23:55.802Z,23.63
2023-01-19T15:26:26.500Z,18.80
2023-01-19T15:28:55.840Z,17.37
2023-01-19T15:31:29.773Z,17.93
2023-01-19T15:33:56.986Z,20.57
2023-01-19T15:36:25.997Z,19.50
2023-01-19T15:38:53.082Z,18.77
2023-01-19T15:41:31.961Z,20.93
2023-01-19T15:43:59.567Z,21.47
2023-01-19T15:46:29.925Z,19.37
2023-01-19T15:48:56.909Z,23.27
2023-01-19T15:51:26.564Z,20.33
2023-01-19T15:53:57.671Z,19.23
2023-01-19T15:56:31.089Z,25.77
2023-01-19T15:58:59.604Z,21.53
2023-01-19T16:01:33.907Z,19.27
2023-01-19T16:04:07.409Z,18.73
2023-01-19T16:06:34.860Z,22.87
2023-01-19T16:09:03.757Z,19.23
2023-01-19T16:11:35.480Z,21.77
2023-01-19T16:14:02.652Z,25.40
2023-01-19T16:16:29.928Z,25.40
2023-01-19T16:18:57.451Z,22.63
2023-01-19T16:21:28.213Z,22.27
2023-01-19T16:23:55.667Z,22.70
2023-01-19T16:26:36.550Z,20.50
2023-01-19T16:29:09.738Z,23.33
2023-01-19T16:31:42.680Z,20.10
2023-01-19T16:34:10.483Z,24.90
2023-01-19T16:36:40.861Z,25.10
2023-01-19T16:39:14.719Z,24.47
2023-01-19T16:41:43.621Z,22.80
2023-01-19T16:44:13.856Z,27.57
2023-01-19T16:46:44.716Z,22.43
2023-01-19T16:49:21.060Z,25.97
2023-01-19T16:51:49.211Z,25.23
2023-01-19T16:54:23.339Z,22.93
2023-01-19T16:56:50.471Z,22.03
2023-01-19T16:59:21.957Z,24.40
2023-01-19T17:01:51.280Z,21.40
2023-01-19T17:04:21.184Z,22.73
2023-01-19T17:06:48.568Z,21.10
2023-01-19T17:09:16.595Z,19.83
2023-01-19T17:11:44.321Z,21.97
2023-01-19T17:14:22.244Z,24.20
2023-01-19T17:16:49.698Z,21.00
2023-01-19T17:19:22.193Z,25.17
2023-01-19T17:21:50.221Z,21.90
2023-01-19T17:24:18.073Z,24.90
2023-01-19T17:26:48.439Z,20.77
2023-01-19T17:29:16.650Z,23.57
2023-01-19T17:31:44.601Z,24.40
2023-01-19T17:34:11.747Z,23.53
2023-01-19T17:36:40.926Z,25.60
2023-01-19T17:39:14.700Z,23.10
2023-01-19T17:41:42.468Z,20.27
2023-01-19T17:44:10.345Z,21.90
2023-01-19T17:46:38.718Z,22.87
2023-01-19T17:49:07.913Z,19.83
2023-01-19T17:51:35.650Z,22.07
2023-01-19T17:54:04.092Z,25.20
2023-01-19T17:56:36.574Z,22.37
2023-01-19T17:59:06.505Z,22.10
2023-01-19T18:01:34.569Z,21.37
2023-01-19T18:04:02.543Z,21.80
2023-01-19T18:06:29.647Z,22.37
2023-01-19T18:08:58.356Z,21.47
2023-01-19T18:11:27.407Z,21.67
2023-01-19T18:13:54.535Z,24.23
2023-01-19T18:16:32.738Z,24.43
2023-01-19T18:18:59.761Z,21.80
2023-01-19T18:21:28.138Z,21.53
2023-01-19T18:24:06.042Z,23.17
2023-01-19T18:26:35.057Z,21.87
2023-01-19T18:29:02.284Z,20.90
2023-01-19T18:31:29.617Z,22.20
2023-01-19T18:33:56.820Z,21.60
2023-01-19T18:36:24.006Z,28.87
2023-01-19T18:38:51.482Z,22.40
2023-01-19T18:41:21.699Z,20.60
2023-01-19T18:43:49.432Z,25.03
2023-01-19T18:46:16.894Z,25.13
2023-01-19T18:48:44.538Z,25.63
2023-01-19T18:51:15.413Z,19.27
2023-01-19T18:53:44.465Z,26.53
2023-01-19T18:56:15.225Z,22.40
2023-01-19T18:58:43.193Z,20.97
2023-01-19T19:01:32.387Z,22.10
2023-01-19T19:04:00.984Z,21.77
2023-01-19T19:06:28.951Z,25.03
2023-01-19T19:08:59.334Z,21.83
2023-01-19T19:11:28.065Z,21.37
2023-01-19T19:14:00.788Z,22.33
2023-01-19T19:16:29.557Z,21.37
2023-01-19T19:18:56.780Z,24.10
2023-01-19T19:21:25.999Z,23.20
2023-01-19T19:23:56.769Z,22.27
2023-01-19T19:26:26.183Z,23.33
2023-01-19T19:28:53.412Z,23.63
2023-01-19T19:31:22.910Z,24.37
2023-01-19T19:33:51.077Z,22.27
2023-01-19T19:36:19.895Z,24.23
2023-01-19T19:38:48.839Z,25.27
2023-01-19T19:41:24.247Z,21.30
2023-01-19T19:43:51.544Z,22.37
2023-01-19T19:46:22.768Z,23.60
2023-01-19T19:48:50.756Z,20.03
2023-01-19T19:51:25.400Z,18.67
2023-01-19T19:53:57.441Z,18.40
2023-01-19T19:56:27.949Z,19.50
2023-01-19T19:58:58.886Z,19.57
2023-01-19T20:01:32.563Z,20.60
2023-01-19T20:04:08.909Z,23.13
2023-01-19T20:06:40.401Z,18.73
2023-01-19T20:09:10.662Z,21.00
2023-01-19T20:11:38.105Z,20.57
2023-01-19T20:14:11.416Z,18.17
2023-01-19T20:16:39.115Z,21.60
2023-01-19T20:19:06.714Z,19.47
2023-01-19T20:21:43.453Z,19.70
2023-01-19T20:24:17.112Z,22.97
2023-01-19T20:26:50.412Z,20.80
2023-01-19T20:29:18.172Z,22.33
2023-01-19T20:31:52.522Z,17.67
2023-01-19T20:34:25.236Z,18.47
2023-01-19T20:36:53.813Z,23.73
2023-01-19T20:39:23.632Z,18.20
2023-01-19T20:41:52.435Z,18.63
2023-01-19T20:44:24.009Z,18.20
2023-01-19T20:46:52.693Z,18.13
2023-01-19T20:49:20.044Z,19.57
2023-01-19T20:51:47.273Z,19.03
2023-01-19T20:54:19.140Z,21.87
2023-01-19T20:56:46.131Z,22.00
2023-01-19T20:59:13.940Z,21.33
2023-01-19T21:01:41.994Z,22.10
2023-01-19T21:04:10.144Z,23.67
2023-01-19T21:06:38.078Z,20.07
2023-01-19T21:09:05.619Z,22.10
2023-01-19T21:11:33.032Z,21.60
2023-01-19T21:14:00.469Z,22.07
2023-01-19T21:16:33.445Z,19.20
2023-01-19T21:19:00.573Z,20.30
2023-01-19T21:21:31.861Z,20.40
2023-01-19T21:24:02.148Z,19.23
2023-01-19T21:26:30.410Z,18.87
2023-01-19T21:29:02.603Z,20.03
2023-01-19T21:31:30.721Z,20.73
2023-01-19T21:33:58.663Z,20.27
2023-01-19T21:36:26.394Z,21.37
2023-01-19T21:38:59.983Z,20.30
2023-01-19T21:41:28.561Z,19.67
2023-01-19T21:43:55.626Z,22.70
2023-01-19T21:46:29.436Z,21.90
2023-01-19T21:49:03.742Z,19.70
2023-01-19T21:51:35.047Z,18.80
2023-01-19T21:54:05.695Z,20.07
2023-01-19T21:56:34.277Z,19.13
2023-01-19T21:59:05.440Z,21.70
2023-01-19T22:01:34.059Z,22.93
2023-01-19T22:04:01.333Z,20.93
2023-01-19T22:06:28.883Z,18.87
2023-01-19T22:08:57.874Z,22.33
2023-01-19T22:11:25.495Z,20.03
2023-01-19T22:13:53.571Z,18.20
2023-01-19T22:16:22.877Z,22.67
2023-01-19T22:18:54.443Z,23.03
2023-01-19T22:21:25.219Z,21.50
2023-01-19T22:23:56.743Z,21.33
2023-01-19T22:26:24.182Z,19.83
2023-01-19T22:29:00.582Z,18.33
2023-01-19T22:31:29.444Z,19.70
2023-01-19T22:33:57.359Z,21.37
2023-01-19T22:36:31.943Z,22.10
2023-01-19T22:39:07.069Z,19.00
2023-01-19T22:41:46.150Z,20.63
2023-01-19T22:44:20.988Z,18.00
2023-01-19T22:46:50.980Z,20.10
2023-01-19T22:49:19.164Z,19.47
2023-01-19T22:51:46.614Z,21.57
2023-01-19T22:54:14.092Z,20.43
2023-01-19T22:56:42.007Z,21.17
2023-01-19T22:59:09.645Z,22.53
2023-01-19T23:01:41.980Z,18.30
2023-01-19T23:04:15.655Z,21.40
2023-01-19T23:06:42.946Z,22.20
2023-01-19T23:09:14.999Z,21.57
2023-01-19T23:11:51.357Z,22.90
2023-01-19T23:14:22.008Z,24.47
2023-01-19T23:16:49.196Z,23.80
2023-01-19T23:19:19.782Z,23.73
2023-01-19T23:21:49.926Z,26.80
2023-01-19T23:24:16.961Z,24.60
2023-01-19T23:26:43.951Z,25.67
2023-01-19T23:29:14.864Z,25.03
2023-01-19T23:31:49.847Z,26.70
2023-01-19T23:34:17.160Z,24.57
2023-01-19T23:36:44.999Z,26.53
2023-01-19T23:39:21.353Z,26.43
2023-01-19T23:41:49.640Z,24.20
2023-01-19T23:44:18.000Z,29.20
2023-01-19T23:46:45.751Z,25.43
2023-01-19T23:49:13.677Z,29.17
2023-01-19T23:51:41.589Z,28.83
2023-01-19T23:54:09.140Z,27.57
2023-01-19T23:56:38.713Z,25.13
2023-01-19T23:59:15.146Z,25.20
